createdAt,value
2023-04-16T00:00:43.472Z,3.08
2023-04-16T00:03:34.640Z,3.08
2023-04-16T00:06:06.407Z,3.07
2023-04-16T00:08:37.806Z,3.06
2023-04-16T00:11:07.601Z,3.07
2023-04-16T00:13:38.692Z,3.05
2023-04-16T00:16:10.731Z,3.05
2023-04-16T00:18:41.782Z,3.04
2023-04-16T00:21:12.778Z,3.04
2023-04-16T00:23:45.613Z,3.03
2023-04-16T00:26:17.549Z,3.02
2023-04-16T00:28:48.815Z,3.02
2023-04-16T00:31:19.895Z,3.03
2023-04-16T00:33:49.544Z,3.06
2023-04-16T00:36:20.588Z,3.07
2023-04-16T00:38:52.445Z,3.11
2023-04-16T00:41:23.770Z,3.14
2023-04-16T00:43:55.689Z,3.16
2023-04-16T00:46:27.213Z,3.19
2023-04-16T00:48:58.653Z,3.21
2023-04-16T00:51:29.863Z,3.21
2023-04-16T00:54:01.882Z,3.22
2023-04-16T00:56:33.319Z,3.20
2023-04-16T00:59:04.467Z,3.23
2023-04-16T01:01:36.106Z,3.23
2023-04-16T01:04:08.419Z,3.22
2023-04-16T01:06:39.379Z,3.19
2023-04-16T01:09:11.376Z,3.13
2023-04-16T01:11:42.650Z,3.09
2023-04-16T01:14:13.632Z,3.06
2023-04-16T01:16:44.868Z,3.03
2023-04-16T01:19:16.082Z,3.01
2023-04-16T01:21:45.823Z,3.00
2023-04-16T01:24:16.940Z,2.96
2023-04-16T01:26:48.170Z,2.97
2023-04-16T01:29:19.094Z,2.95
2023-04-16T01:31:50.091Z,2.95
2023-04-16T01:34:21.064Z,2.92
2023-04-16T01:36:52.327Z,2.93
2023-04-16T01:39:23.511Z,2.94
2023-04-16T01:41:54.347Z,2.97
2023-04-16T01:44:25.680Z,2.98
2023-04-16T01:46:55.014Z,2.97
2023-04-16T01:49:26.493Z,2.95
2023-04-16T01:51:55.943Z,2.94
2023-04-16T01:54:27.076Z,2.89
2023-04-16T01:56:57.311Z,2.86
2023-04-16T01:59:26.716Z,2.81
2023-04-16T02:01:58.424Z,2.77
2023-04-16T02:04:29.822Z,2.74
2023-04-16T02:07:00.875Z,2.70
2023-04-16T02:09:32.001Z,2.59
2023-04-16T02:12:03.428Z,2.52
2023-04-16T02:14:35.109Z,2.48
2023-04-16T02:17:06.663Z,2.46
2023-04-16T02:19:37.822Z,2.45
2023-04-16T02:22:08.842Z,2.45
2023-04-16T02:24:39.851Z,2.44
2023-04-16T02:27:11.270Z,2.43
2023-04-16T02:29:42.289Z,2.45
2023-04-16T02:32:13.475Z,2.44
2023-04-16T02:34:44.638Z,2.43
2023-04-16T02:37:16.593Z,2.41
2023-04-16T02:39:49.848Z,2.43
2023-04-16T02:42:20.977Z,2.46
2023-04-16T02:44:52.317Z,2.50
2023-04-16T02:47:23.382Z,2.56
2023-04-16T02:49:54.757Z,2.61
2023-04-16T02:52:26.058Z,2.67
2023-04-16T02:54:55.571Z,2.72
2023-04-16T02:57:26.693Z,2.73
2023-04-16T03:00:00.318Z,2.73
2023-04-16T03:02:32.094Z,2.73
2023-04-16T03:05:03.295Z,2.76
2023-04-16T03:07:34.361Z,2.80
2023-04-16T03:10:05.759Z,2.86
2023-04-16T03:12:37.073Z,2.92
2023-04-16T03:15:07.315Z,2.99
2023-04-16T03:17:38.323Z,3.04
2023-04-16T03:20:12.264Z,3.11
2023-04-16T03:22:43.351Z,3.17
2023-04-16T03:25:12.985Z,3.24
2023-04-16T03:27:44.197Z,3.29
2023-04-16T03:30:16.496Z,3.34
2023-04-16T03:32:47.748Z,3.39
2023-04-16T03:35:19.417Z,3.42
2023-04-16T03:37:50.581Z,3.42
2023-04-16T03:40:22.012Z,3.43
2023-04-16T03:42:53.240Z,3.44
2023-04-16T03:45:24.172Z,3.47
2023-04-16T03:47:55.261Z,3.52
2023-04-16T03:50:26.358Z,3.57
2023-04-16T03:52:57.464Z,3.60
2023-04-16T03:55:29.482Z,3.65
2023-04-16T03:58:03.272Z,3.67
2023-04-16T04:00:34.699Z,3.70
2023-04-16T04:03:06.206Z,3.73
2023-04-16T04:05:40.295Z,3.76
2023-04-16T04:08:11.608Z,3.79
2023-04-16T04:10:41.073Z,3.79
2023-04-16T04:13:12.031Z,3.78
2023-04-16T04:15:43.112Z,3.80
2023-04-16T04:18:14.014Z,3.82
2023-04-16T04:20:45.590Z,3.83
2023-04-16T04:23:16.688Z,3.85
2023-04-16T04:25:48.274Z,3.88
2023-04-16T04:28:19.381Z,3.92
2023-04-16T04:30:48.907Z,3.96
2023-04-16T04:33:20.082Z,3.97
2023-04-16T04:35:52.696Z,4.01
2023-04-16T04:38:25.482Z,4.04
2023-04-16T04:40:56.932Z,4.08
2023-04-16T04:43:28.416Z,4.12
2023-04-16T04:45:59.815Z,4.16
2023-04-16T04:48:30.779Z,4.20
2023-04-16T04:51:05.341Z,4.24
2023-04-16T04:53:36.814Z,4.27
2023-04-16T04:56:12.100Z,4.31
2023-04-16T04:58:44.303Z,4.32
2023-04-16T05:01:13.693Z,4.34
2023-04-16T05:03:45.517Z,4.33
2023-04-16T05:06:16.805Z,4.35
2023-04-16T05:08:48.129Z,4.38
2023-04-16T05:11:19.107Z,4.43
2023-04-16T05:13:50.204Z,4.49
2023-04-16T05:16:21.083Z,4.54
2023-04-16T05:18:56.286Z,4.59
2023-04-16T05:21:27.587Z,4.63
2023-04-16T05:23:59.943Z,4.70
2023-04-16T05:26:31.067Z,4.77
2023-04-16T05:29:02.339Z,4.84
2023-04-16T05:31:33.676Z,4.91
2023-04-16T05:34:04.901Z,4.99
2023-04-16T05:36:36.104Z,5.05
2023-04-16T05:39:08.037Z,5.11
2023-04-16T05:41:39.449Z,5.16
2023-04-16T05:44:08.830Z,5.22
2023-04-16T05:46:39.715Z,5.27
2023-04-16T05:49:09.778Z,5.35
2023-04-16T05:51:41.059Z,5.43
2023-04-16T05:54:12.258Z,5.52
2023-04-16T05:56:43.332Z,5.62
2023-04-16T05:59:14.337Z,5.73
2023-04-16T06:01:45.948Z,5.82
2023-04-16T06:04:17.345Z,5.90
2023-04-16T06:06:46.749Z,5.98
2023-04-16T06:09:18.349Z,6.04
2023-04-16T06:11:49.493Z,6.15
2023-04-16T06:14:18.999Z,6.23
2023-04-16T06:16:49.989Z,6.29
2023-04-16T06:19:21.121Z,6.38
2023-04-16T06:21:52.456Z,6.45
2023-04-16T06:24:23.912Z,6.51
2023-04-16T06:26:55.604Z,6.61
2023-04-16T06:29:36.865Z,6.67
2023-04-16T06:32:11.818Z,6.73
2023-04-16T06:34:42.940Z,6.82
2023-04-16T06:37:14.502Z,6.87
2023-04-16T06:39:45.444Z,6.96
2023-04-16T06:42:16.442Z,7.04
2023-04-16T06:44:45.839Z,7.12
2023-04-16T06:47:17.390Z,7.17
2023-04-16T06:49:48.409Z,7.24
2023-04-16T06:52:17.904Z,7.31
2023-04-16T06:54:48.866Z,7.38
2023-04-16T06:57:20.178Z,7.47
2023-04-16T06:59:51.806Z,7.57
2023-04-16T07:02:23.275Z,7.65
2023-04-16T07:04:54.686Z,7.74
2023-04-16T07:07:26.005Z,7.81
2023-04-16T07:09:57.073Z,7.87
2023-04-16T07:12:28.485Z,7.92
2023-04-16T07:14:59.558Z,7.95
2023-04-16T07:17:30.803Z,8.03
2023-04-16T07:20:01.873Z,8.12
2023-04-16T07:22:34.447Z,8.21
2023-04-16T07:25:06.688Z,8.29
2023-04-16T07:27:37.878Z,8.37
2023-04-16T07:30:10.767Z,8.43
2023-04-16T07:32:41.808Z,8.48
2023-04-16T07:35:13.471Z,8.51
2023-04-16T07:37:45.247Z,8.56
2023-04-16T07:40:16.749Z,8.62
2023-04-16T07:42:48.080Z,8.67
2023-04-16T07:45:20.186Z,8.73
2023-04-16T07:47:51.520Z,8.78
2023-04-16T07:50:22.738Z,8.84
2023-04-16T07:52:54.929Z,8.89
2023-04-16T07:55:26.568Z,8.92
2023-04-16T07:57:57.661Z,8.95
2023-04-16T08:00:28.725Z,8.99
2023-04-16T08:03:00.040Z,9.02
2023-04-16T08:05:31.444Z,9.03
2023-04-16T08:08:02.820Z,9.00
2023-04-16T08:10:34.362Z,8.94
2023-04-16T08:13:08.491Z,8.92
2023-04-16T08:15:39.952Z,8.88
2023-04-16T08:18:15.690Z,8.82
2023-04-16T08:20:46.829Z,8.81
2023-04-16T08:23:18.141Z,8.83
2023-04-16T08:25:49.632Z,8.84
2023-04-16T08:28:21.616Z,8.83
2023-04-16T08:30:53.081Z,8.86
2023-04-16T08:33:24.084Z,8.86
2023-04-16T08:35:55.231Z,8.85
2023-04-16T08:38:26.518Z,8.86
2023-04-16T08:40:58.125Z,8.90
2023-04-16T08:43:34.450Z,8.96
2023-04-16T08:46:06.485Z,9.04
2023-04-16T08:48:38.314Z,9.13
2023-04-16T08:51:13.460Z,9.25
2023-04-16T08:53:54.931Z,9.38
2023-04-16T08:56:27.070Z,9.55
2023-04-16T08:58:58.564Z,9.73
2023-04-16T09:01:29.891Z,9.91
2023-04-16T09:04:02.871Z,10.11
2023-04-16T09:06:35.919Z,10.30
2023-04-16T09:09:08.418Z,10.46
2023-04-16T09:11:40.950Z,10.59
2023-04-16T09:14:14.754Z,10.72
2023-04-16T09:16:47.951Z,10.83
2023-04-16T09:19:19.038Z,10.95
2023-04-16T09:21:51.235Z,11.09
2023-04-16T09:24:24.991Z,11.19
2023-04-16T09:26:57.612Z,11.31
2023-04-16T09:29:49.993Z,11.40
2023-04-16T09:32:28.419Z,11.53
2023-04-16T09:35:01.188Z,11.64
2023-04-16T09:37:33.311Z,11.74
2023-04-16T09:40:05.570Z,11.89
2023-04-16T09:42:38.263Z,12.04
2023-04-16T09:45:10.983Z,12.13
2023-04-16T09:47:47.101Z,12.22
2023-04-16T09:50:19.986Z,12.26
2023-04-16T09:52:52.843Z,12.23
2023-04-16T09:55:29.780Z,12.23
2023-04-16T09:58:03.593Z,12.29
2023-04-16T10:00:35.257Z,12.33
2023-04-16T10:03:14.318Z,12.36
2023-04-16T10:05:45.714Z,12.42
2023-04-16T10:08:18.843Z,12.50
2023-04-16T10:10:49.919Z,12.48
2023-04-16T10:13:21.177Z,12.49
2023-04-16T10:15:52.776Z,12.58
2023-04-16T10:18:24.127Z,12.66
2023-04-16T10:20:56.241Z,12.71
2023-04-16T10:23:27.707Z,12.72
2023-04-16T10:25:59.999Z,12.75
2023-04-16T10:28:31.522Z,12.84
2023-04-16T10:31:04.529Z,12.95
2023-04-16T10:33:37.934Z,13.05
2023-04-16T10:36:14.164Z,13.17
2023-04-16T10:38:50.644Z,13.34
2023-04-16T10:41:22.479Z,13.45
2023-04-16T10:43:54.011Z,13.52
2023-04-16T10:46:27.104Z,13.60
2023-04-16T10:49:01.561Z,13.64
2023-04-16T10:51:34.579Z,13.69
2023-04-16T10:54:21.714Z,13.75
2023-04-16T10:56:54.097Z,13.85
2023-04-16T10:59:26.367Z,13.91
2023-04-16T11:02:00.235Z,13.95
2023-04-16T11:04:37.083Z,13.97
2023-04-16T11:07:16.581Z,13.95
2023-04-16T11:09:55.466Z,13.94
2023-04-16T11:12:29.147Z,13.92
2023-04-16T11:15:04.876Z,13.90
2023-04-16T11:17:40.408Z,13.84
2023-04-16T11:20:20.246Z,13.76
2023-04-16T11:22:52.914Z,13.79
2023-04-16T11:25:24.789Z,13.89
2023-04-16T11:27:57.097Z,14.03
2023-04-16T11:30:34.477Z,14.18
2023-04-16T11:33:06.765Z,14.32
2023-04-16T11:35:39.291Z,14.43
2023-04-16T11:38:10.456Z,14.55
2023-04-16T11:40:43.642Z,14.59
2023-04-16T11:43:17.957Z,14.59
2023-04-16T11:46:00.549Z,14.56
2023-04-16T11:48:49.134Z,14.55
2023-04-16T11:51:21.940Z,14.55
2023-04-16T11:53:54.624Z,14.53
2023-04-16T11:56:34.582Z,14.47
2023-04-16T11:59:13.876Z,14.42
2023-04-16T12:01:49.828Z,14.35
2023-04-16T12:04:24.722Z,14.25
2023-04-16T12:07:19.581Z,14.11
2023-04-16T12:09:50.960Z,14.03
2023-04-16T12:12:33.349Z,14.03
2023-04-16T12:15:05.496Z,14.05
2023-04-16T12:17:37.624Z,14.08
2023-04-16T12:20:12.691Z,14.14
2023-04-16T12:22:47.740Z,14.19
2023-04-16T12:25:20.716Z,14.25
2023-04-16T12:27:54.186Z,14.29
2023-04-16T12:30:26.825Z,14.33
2023-04-16T12:33:17.036Z,14.38
2023-04-16T12:35:48.578Z,14.41
2023-04-16T12:38:20.778Z,14.46
2023-04-16T12:40:57.006Z,14.56
2023-04-16T12:43:28.545Z,14.67
2023-04-16T12:46:00.457Z,14.78
2023-04-16T12:48:33.879Z,14.87
2023-04-16T12:51:05.095Z,14.89
2023-04-16T12:53:36.042Z,14.79
2023-04-16T12:56:07.796Z,14.71
2023-04-16T12:58:39.638Z,14.67
2023-04-16T13:01:12.032Z,14.71
2023-04-16T13:03:43.212Z,14.80
2023-04-16T13:06:15.489Z,14.91
2023-04-16T13:08:47.107Z,15.01
2023-04-16T13:11:19.190Z,15.05
2023-04-16T13:13:50.248Z,15.12
2023-04-16T13:16:21.354Z,15.17
2023-04-16T13:18:52.522Z,15.23
2023-04-16T13:21:24.301Z,15.33
2023-04-16T13:23:55.434Z,15.44
2023-04-16T13:26:26.803Z,15.49
2023-04-16T13:28:58.156Z,15.51
2023-04-16T13:31:29.481Z,15.44
2023-04-16T13:34:00.888Z,15.37
2023-04-16T13:36:32.339Z,15.32
2023-04-16T13:39:11.512Z,15.19
2023-04-16T13:41:42.933Z,15.05
2023-04-16T13:44:13.904Z,15.00
2023-04-16T13:46:47.787Z,14.94
2023-04-16T13:49:18.873Z,14.81
2023-04-16T13:51:49.901Z,14.71
2023-04-16T13:54:21.907Z,14.68
2023-04-16T13:56:54.040Z,14.71
2023-04-16T13:59:25.280Z,14.75
2023-04-16T14:01:56.548Z,14.78
2023-04-16T14:04:27.657Z,14.81
2023-04-16T14:06:59.029Z,14.88
2023-04-16T14:09:30.065Z,15.02
2023-04-16T14:12:01.216Z,15.03
2023-04-16T14:14:32.689Z,14.98
2023-04-16T14:17:04.329Z,14.72
2023-04-16T14:19:35.380Z,14.42
2023-04-16T14:22:08.723Z,14.04
2023-04-16T14:24:40.452Z,13.65
2023-04-16T14:27:12.328Z,13.32
2023-04-16T14:29:43.930Z,13.03
2023-04-16T14:32:15.850Z,12.75
2023-04-16T14:35:05.979Z,12.47
2023-04-16T14:37:37.130Z,12.31
2023-04-16T14:40:11.010Z,12.20
2023-04-16T14:42:45.153Z,12.11
2023-04-16T14:45:16.211Z,12.02
2023-04-16T14:47:48.012Z,11.92
2023-04-16T14:50:19.616Z,11.81
2023-04-16T14:52:51.958Z,11.76
2023-04-16T14:55:23.267Z,11.72
2023-04-16T14:57:54.295Z,11.70
2023-04-16T15:00:25.876Z,11.71
2023-04-16T15:02:57.793Z,11.70
2023-04-16T15:05:29.213Z,11.69
2023-04-16T15:08:00.794Z,11.68
2023-04-16T15:10:32.938Z,11.64
2023-04-16T15:13:04.288Z,11.62
2023-04-16T15:15:35.656Z,11.64
2023-04-16T15:18:07.239Z,11.65
2023-04-16T15:20:38.245Z,11.66
2023-04-16T15:23:09.724Z,11.68
2023-04-16T15:25:40.843Z,11.73
2023-04-16T15:28:11.911Z,11.91
2023-04-16T15:30:43.542Z,11.90
2023-04-16T15:33:14.909Z,11.94
2023-04-16T15:35:45.943Z,12.05
2023-04-16T15:38:17.080Z,12.46
2023-04-16T15:40:48.123Z,12.83
2023-04-16T15:43:19.469Z,13.16
2023-04-16T15:45:50.870Z,13.46
2023-04-16T15:48:22.471Z,13.60
2023-04-16T15:50:55.117Z,13.72
2023-04-16T15:53:26.228Z,13.81
2023-04-16T15:55:57.401Z,13.84
2023-04-16T15:58:28.632Z,13.80
2023-04-16T16:00:59.850Z,13.67
2023-04-16T16:03:33.063Z,13.49
2023-04-16T16:06:05.153Z,13.42
2023-04-16T16:08:38.372Z,13.41
2023-04-16T16:11:09.370Z,13.36
2023-04-16T16:13:41.866Z,13.27
2023-04-16T16:16:13.741Z,13.16
2023-04-16T16:18:44.815Z,13.07
2023-04-16T16:21:16.281Z,12.97
2023-04-16T16:23:47.671Z,12.93
2023-04-16T16:26:20.609Z,12.86
2023-04-16T16:28:51.566Z,12.81
2023-04-16T16:31:22.424Z,12.79
2023-04-16T16:33:53.832Z,12.80
2023-04-16T16:36:24.941Z,12.79
2023-04-16T16:38:56.625Z,12.78
2023-04-16T16:41:27.655Z,12.80
2023-04-16T16:43:59.217Z,12.86
2023-04-16T16:46:30.445Z,12.98
2023-04-16T16:49:01.553Z,13.05
2023-04-16T16:51:33.712Z,13.06
2023-04-16T16:54:04.831Z,13.07
2023-04-16T16:56:35.990Z,13.15
2023-04-16T16:59:07.707Z,13.23
2023-04-16T17:01:38.894Z,13.25
2023-04-16T17:04:10.003Z,13.27
2023-04-16T17:06:41.249Z,13.25
2023-04-16T17:09:12.728Z,13.19
2023-04-16T17:11:44.099Z,13.08
2023-04-16T17:14:15.394Z,12.93
2023-04-16T17:16:49.787Z,12.75
2023-04-16T17:19:20.884Z,12.56
2023-04-16T17:21:53.878Z,12.42
2023-04-16T17:24:25.072Z,12.27
2023-04-16T17:26:57.048Z,12.13
2023-04-16T17:29:28.128Z,11.90
2023-04-16T17:31:59.694Z,11.71
2023-04-16T17:34:30.868Z,11.59
2023-04-16T17:37:01.965Z,11.46
2023-04-16T17:39:33.225Z,11.30
2023-04-16T17:42:04.161Z,11.09
2023-04-16T17:44:35.459Z,10.88
2023-04-16T17:47:06.481Z,10.71
2023-04-16T17:49:37.636Z,10.52
2023-04-16T17:52:08.930Z,10.32
2023-04-16T17:54:40.128Z,10.19
2023-04-16T17:57:11.620Z,10.05
2023-04-16T17:59:42.898Z,9.90
2023-04-16T18:02:14.124Z,9.77
2023-04-16T18:04:45.692Z,9.63
2023-04-16T18:07:17.839Z,9.51
2023-04-16T18:09:48.901Z,9.38
2023-04-16T18:12:20.098Z,9.27
2023-04-16T18:14:51.317Z,9.19
2023-04-16T18:17:23.520Z,9.12
2023-04-16T18:19:55.708Z,9.06
2023-04-16T18:22:32.084Z,8.98
2023-04-16T18:25:03.549Z,8.92
2023-04-16T18:27:34.506Z,8.85
2023-04-16T18:30:06.397Z,8.80
2023-04-16T18:32:43.317Z,8.74
2023-04-16T18:35:26.432Z,8.69
2023-04-16T18:37:57.679Z,8.64
2023-04-16T18:40:29.332Z,8.57
2023-04-16T18:43:00.497Z,8.49
2023-04-16T18:45:34.104Z,8.40
2023-04-16T18:48:06.206Z,8.30
2023-04-16T18:50:38.251Z,8.22
2023-04-16T18:53:09.351Z,8.17
2023-04-16T18:55:40.880Z,8.12
2023-04-16T18:58:12.802Z,8.08
2023-04-16T19:00:44.127Z,8.07
2023-04-16T19:03:15.484Z,8.06
2023-04-16T19:05:46.522Z,8.03
2023-04-16T19:08:18.140Z,7.95
2023-04-16T19:10:51.325Z,7.90
2023-04-16T19:13:22.791Z,7.87
2023-04-16T19:16:00.581Z,7.84
2023-04-16T19:18:31.659Z,7.81
2023-04-16T19:21:03.056Z,7.78
2023-04-16T19:23:34.349Z,7.77
2023-04-16T19:26:03.977Z,7.74
2023-04-16T19:28:35.097Z,7.66
2023-04-16T19:31:06.541Z,7.62
2023-04-16T19:33:37.913Z,7.58
2023-04-16T19:36:10.145Z,7.58
2023-04-16T19:38:41.254Z,7.60
2023-04-16T19:41:10.688Z,7.63
2023-04-16T19:43:42.041Z,7.65
2023-04-16T19:46:13.160Z,7.68
2023-04-16T19:48:44.482Z,7.68
2023-04-16T19:51:15.609Z,7.67
2023-04-16T19:53:46.654Z,7.64
2023-04-16T19:56:18.018Z,7.62
2023-04-16T19:58:49.093Z,7.62
2023-04-16T20:01:20.090Z,7.62
2023-04-16T20:03:51.396Z,7.60
2023-04-16T20:06:22.498Z,7.55
2023-04-16T20:08:53.662Z,7.45
2023-04-16T20:11:25.018Z,7.36
2023-04-16T20:13:56.334Z,7.31
2023-04-16T20:16:27.743Z,7.28
2023-04-16T20:19:08.578Z,7.24
2023-04-16T20:21:40.754Z,7.18
2023-04-16T20:24:12.188Z,7.13
2023-04-16T20:26:43.914Z,7.06
2023-04-16T20:29:14.963Z,6.99
2023-04-16T20:31:45.999Z,6.92
2023-04-16T20:34:17.166Z,6.85
2023-04-16T20:36:48.332Z,6.82
2023-04-16T20:39:20.458Z,6.76
2023-04-16T20:41:56.683Z,6.70
2023-04-16T20:44:33.386Z,6.64
2023-04-16T20:47:05.186Z,6.56
2023-04-16T20:49:36.391Z,6.49
2023-04-16T20:52:08.173Z,6.45
2023-04-16T20:54:39.186Z,6.42
2023-04-16T20:57:10.430Z,6.39
2023-04-16T20:59:41.616Z,6.34
2023-04-16T21:02:12.981Z,6.28
2023-04-16T21:04:44.666Z,6.22
2023-04-16T21:07:16.645Z,6.14
2023-04-16T21:09:47.902Z,6.07
2023-04-16T21:12:19.035Z,6.01
2023-04-16T21:14:49.858Z,5.95
2023-04-16T21:17:21.022Z,5.89
2023-04-16T21:19:51.917Z,5.85
2023-04-16T21:22:23.298Z,5.82
2023-04-16T21:24:54.573Z,5.78
2023-04-16T21:27:25.923Z,5.71
2023-04-16T21:29:56.988Z,5.66
2023-04-16T21:32:28.275Z,5.61
2023-04-16T21:34:59.434Z,5.54
2023-04-16T21:37:30.385Z,5.51
2023-04-16T21:39:59.759Z,5.46
2023-04-16T21:42:31.491Z,5.37
2023-04-16T21:45:02.480Z,5.32
2023-04-16T21:47:33.569Z,5.26
2023-04-16T21:50:03.306Z,5.18
2023-04-16T21:52:40.467Z,5.07
2023-04-16T21:55:12.306Z,5.00
2023-04-16T21:57:43.455Z,4.91
2023-04-16T22:00:14.361Z,4.87
2023-04-16T22:02:45.646Z,4.81
2023-04-16T22:05:17.048Z,4.75
2023-04-16T22:07:46.697Z,4.68
2023-04-16T22:10:18.073Z,4.65
2023-04-16T22:12:47.679Z,4.62
2023-04-16T22:15:18.689Z,4.58
2023-04-16T22:17:52.371Z,4.55
2023-04-16T22:20:23.544Z,4.53
2023-04-16T22:22:57.845Z,4.49
2023-04-16T22:25:29.061Z,4.45
2023-04-16T22:28:00.737Z,4.41
2023-04-16T22:30:32.035Z,4.38
2023-04-16T22:33:03.860Z,4.34
2023-04-16T22:35:36.017Z,4.33
2023-04-16T22:38:07.866Z,4.29
2023-04-16T22:40:38.860Z,4.25
2023-04-16T22:43:10.595Z,4.22
2023-04-16T22:45:43.073Z,4.22
2023-04-16T22:48:14.130Z,4.18
2023-04-16T22:50:51.003Z,4.13
2023-04-16T22:53:22.195Z,4.05
2023-04-16T22:55:53.921Z,3.99
2023-04-16T22:58:24.971Z,3.91
2023-04-16T23:00:56.739Z,3.83
2023-04-16T23:03:28.065Z,3.76
2023-04-16T23:05:59.139Z,3.67
2023-04-16T23:08:30.062Z,3.58
2023-04-16T23:11:01.221Z,3.48
2023-04-16T23:13:32.962Z,3.38
2023-04-16T23:16:03.934Z,3.30
2023-04-16T23:18:35.029Z,3.28
2023-04-16T23:21:04.705Z,3.27
2023-04-16T23:23:36.060Z,3.25
2023-04-16T23:26:07.753Z,3.24
2023-04-16T23:28:38.746Z,3.21
2023-04-16T23:31:09.723Z,3.19
2023-04-16T23:33:40.847Z,3.21
2023-04-16T23:36:12.741Z,3.20
2023-04-16T23:38:43.787Z,3.18
2023-04-16T23:41:14.734Z,3.16
2023-04-16T23:43:45.819Z,3.13
2023-04-16T23:46:16.751Z,3.08
2023-04-16T23:48:50.283Z,3.03
2023-04-16T23:51:21.223Z,3.00
2023-04-16T23:53:52.144Z,2.99
2023-04-16T23:56:21.851Z,2.99
2023-04-16T23:58:53.627Z,2.97
